CheckWX is a tool to help pilots better visualize weather data.  It is not intended as a substitute for an official pre-flight weather briefing.

20:11:57 UTC

KBKT METAR
Allen C Perkinson Blackstone AAF Airport
Blackstone, Virginia, USA
Current

17 mins ago

KBKT 231955Z AUTO 20011G16KT 10SM CLR 28/11 A2994 RMK AO1 T02790108
Observed
Apr-23 @ 19:55 UTC
Wind
  • 200° at 11 KTS
  • Gusting to 16 KTS
Visibility
10 SM
Flight Rules
VFR
Cloud Levels
  • Clear skies
Temperature
28°C / 82°F
Dewpoint
11°C / 52°F
Humidity
35%
Altimeter
29.94" Hg
Pressure
1013.92 hPa
Previous

37 mins ago

KBKT 231935Z AUTO 19010G15KT 10SM CLR 28/10 A2994 RMK AO1 T02750104
Observed
Apr-23 @ 19:35 UTC
Wind
  • 190° at 10 KTS
  • Gusting to 15 KTS
Visibility
10 SM
Flight Rules
VFR
Cloud Levels
  • Clear skies
Temperature
28°C / 82°F
Dewpoint
10°C / 50°F
Humidity
32%
Altimeter
29.94" Hg
Pressure
1013.92 hPa
Previous

57 mins ago

KBKT 231915Z AUTO 20011G14KT 10SM CLR 28/10 A2995 RMK AO1 T02760104
Observed
Apr-23 @ 19:15 UTC
Wind
  • 200° at 11 KTS
  • Gusting to 14 KTS
Visibility
10 SM
Flight Rules
VFR
Cloud Levels
  • Clear skies
Temperature
28°C / 82°F
Dewpoint
10°C / 50°F
Humidity
32%
Altimeter
29.95" Hg
Pressure
1014.22 hPa